createdAt,value
2018-05-14T00:00:36.722Z,74.37
2018-05-14T00:03:04.273Z,73.89
2018-05-14T00:05:31.801Z,73.27
2018-05-14T00:07:59.318Z,74.99
2018-05-14T00:10:26.848Z,73.46
2018-05-14T00:12:54.385Z,73.79
2018-05-14T00:15:21.911Z,74.20
2018-05-14T00:17:49.451Z,74.42
2018-05-14T00:20:16.973Z,76.22
2018-05-14T00:22:44.489Z,75.40
2018-05-14T00:25:12.011Z,75.55
2018-05-14T00:27:39.536Z,74.91
2018-05-14T00:30:07.098Z,74.74
2018-05-14T00:32:34.618Z,73.70
2018-05-14T00:35:02.145Z,73.39
2018-05-14T00:37:29.662Z,75.28
2018-05-14T00:39:57.181Z,76.72
2018-05-14T00:42:24.718Z,76.60
2018-05-14T00:44:52.243Z,76.28
2018-05-14T00:47:19.768Z,77.01
2018-05-14T00:49:47.293Z,76.73
2018-05-14T00:52:14.814Z,77.45
2018-05-14T00:54:54.117Z,77.30
2018-05-14T00:57:21.650Z,77.81
2018-05-14T00:59:49.178Z,79.46
2018-05-14T01:02:16.756Z,81.26
2018-05-14T01:04:44.279Z,81.82
2018-05-14T01:07:11.814Z,81.71
2018-05-14T01:09:39.338Z,81.10
2018-05-14T01:12:06.910Z,81.14
2018-05-14T01:14:34.443Z,81.14
2018-05-14T01:17:02.034Z,80.07
2018-05-14T01:19:29.570Z,80.37
2018-05-14T01:21:57.099Z,80.91
2018-05-14T01:24:24.625Z,81.31
2018-05-14T01:26:52.159Z,81.35
2018-05-14T01:29:19.689Z,80.99
2018-05-14T01:31:47.227Z,80.13
2018-05-14T01:34:14.765Z,80.31
2018-05-14T01:36:42.295Z,80.97
2018-05-14T01:39:09.827Z,81.20
2018-05-14T01:41:37.355Z,81.94
2018-05-14T01:44:04.887Z,82.62
2018-05-14T01:46:32.415Z,82.41
2018-05-14T01:48:59.946Z,83.06
2018-05-14T01:51:27.481Z,82.89
2018-05-14T01:53:55.023Z,82.32
2018-05-14T01:56:22.581Z,82.07
2018-05-14T01:58:50.101Z,81.62
2018-05-14T02:01:17.641Z,81.62
2018-05-14T02:03:45.186Z,82.54
2018-05-14T02:06:12.714Z,83.21
2018-05-14T02:08:40.243Z,82.55
2018-05-14T02:11:07.787Z,81.83
2018-05-14T02:13:35.323Z,81.11
2018-05-14T02:16:02.890Z,80.77
2018-05-14T02:18:30.413Z,80.56
2018-05-14T02:20:58.013Z,80.55
2018-05-14T02:23:25.562Z,81.07
2018-05-14T02:25:53.088Z,81.27
2018-05-14T02:28:20.617Z,81.38
2018-05-14T02:30:48.150Z,81.42
2018-05-14T02:33:15.686Z,81.30
2018-05-14T02:35:43.215Z,80.95
2018-05-14T02:38:10.802Z,81.77
2018-05-14T02:40:38.325Z,81.85
2018-05-14T02:43:05.890Z,82.23
2018-05-14T02:45:33.436Z,82.05
2018-05-14T02:48:00.960Z,82.26
2018-05-14T02:50:28.496Z,81.53
2018-05-14T02:52:56.026Z,81.39
2018-05-14T02:55:23.563Z,80.59
2018-05-14T02:57:51.093Z,80.93
2018-05-14T03:00:18.623Z,80.79
2018-05-14T03:02:46.148Z,80.54
2018-05-14T03:05:13.674Z,79.31
2018-05-14T03:07:41.207Z,79.00
2018-05-14T03:10:08.738Z,79.58
2018-05-14T03:12:36.273Z,79.59
2018-05-14T03:15:03.809Z,78.96
2018-05-14T03:17:31.337Z,79.16
2018-05-14T03:19:58.857Z,80.16
2018-05-14T03:22:26.384Z,80.35
2018-05-14T03:24:53.917Z,80.33
2018-05-14T03:27:21.442Z,80.60
2018-05-14T03:29:48.976Z,80.55
2018-05-14T03:32:16.507Z,80.87
2018-05-14T03:34:44.036Z,80.49
2018-05-14T03:37:11.571Z,79.85
2018-05-14T03:39:39.110Z,79.83
2018-05-14T03:42:06.637Z,79.72
2018-05-14T03:44:34.170Z,79.25
2018-05-14T03:47:01.699Z,78.79
2018-05-14T03:49:29.239Z,78.40
2018-05-14T03:51:56.765Z,78.01
2018-05-14T03:54:24.310Z,77.89
2018-05-14T03:56:51.856Z,78.01
2018-05-14T03:59:31.307Z,77.37
2018-05-14T04:02:21.510Z,77.65
2018-05-14T04:05:00.639Z,77.26
2018-05-14T04:07:28.162Z,77.08
2018-05-14T04:09:55.686Z,77.11
2018-05-14T04:12:23.262Z,76.77
2018-05-14T04:14:50.789Z,76.55
2018-05-14T04:17:18.309Z,76.43
2018-05-14T04:19:45.836Z,76.29
2018-05-14T04:22:13.367Z,77.00
2018-05-14T04:24:40.932Z,76.50
2018-05-14T04:27:08.483Z,76.34
2018-05-14T04:29:36.963Z,76.18
2018-05-14T04:32:04.514Z,76.25
2018-05-14T04:34:32.046Z,75.70
2018-05-14T04:36:59.572Z,75.65
2018-05-14T04:39:27.131Z,74.54
2018-05-14T04:41:54.659Z,75.17
2018-05-14T04:44:22.195Z,74.75
2018-05-14T04:46:49.731Z,74.71
2018-05-14T04:49:17.276Z,74.22
2018-05-14T04:51:44.778Z,74.66
2018-05-14T04:54:12.299Z,74.48
2018-05-14T04:56:39.815Z,73.26
2018-05-14T04:59:07.343Z,73.05
2018-05-14T05:01:34.852Z,73.89
2018-05-14T05:04:02.374Z,73.52
2018-05-14T05:06:29.882Z,72.78
2018-05-14T05:08:57.403Z,73.00
2018-05-14T05:11:24.978Z,72.31
2018-05-14T05:13:52.437Z,72.20
2018-05-14T05:16:19.952Z,71.52
2018-05-14T05:18:47.464Z,72.32
2018-05-14T05:21:14.997Z,71.94
2018-05-14T05:23:42.557Z,71.62
2018-05-14T05:26:10.088Z,70.74
2018-05-14T05:28:37.619Z,70.57
2018-05-14T05:31:05.133Z,69.61
2018-05-14T05:33:32.651Z,70.18
2018-05-14T05:36:00.157Z,69.16
2018-05-14T05:38:27.682Z,70.07
2018-05-14T05:40:55.206Z,71.44
2018-05-14T05:43:22.727Z,71.07
2018-05-14T05:45:50.236Z,69.44
2018-05-14T05:48:17.806Z,69.55
2018-05-14T05:50:45.318Z,68.10
2018-05-14T05:53:12.868Z,68.48
2018-05-14T05:55:40.375Z,67.13
2018-05-14T05:58:07.880Z,65.38
2018-05-14T06:00:35.454Z,64.08
2018-05-14T06:03:02.971Z,65.78
2018-05-14T06:05:30.488Z,65.22
2018-05-14T06:07:57.998Z,65.07
2018-05-14T06:10:25.516Z,64.47
2018-05-14T06:12:53.040Z,64.41
2018-05-14T06:15:20.555Z,64.45
2018-05-14T06:17:48.059Z,65.41
2018-05-14T06:20:15.617Z,66.09
2018-05-14T06:22:43.137Z,64.24
2018-05-14T06:25:10.711Z,61.05
2018-05-14T06:27:38.220Z,54.79
2018-05-14T06:30:05.814Z,53.04
2018-05-14T06:32:33.341Z,51.88
2018-05-14T06:35:00.855Z,51.59
2018-05-14T06:37:28.459Z,49.77
2018-05-14T06:39:56.003Z,50.83
2018-05-14T06:42:23.514Z,48.87
2018-05-14T06:44:51.060Z,48.52
2018-05-14T06:47:18.561Z,50.65
2018-05-14T06:49:46.104Z,50.28
2018-05-14T06:52:13.624Z,50.16
2018-05-14T06:54:41.161Z,48.74
2018-05-14T06:57:08.702Z,49.79
2018-05-14T06:59:36.271Z,48.95
2018-05-14T07:02:03.801Z,52.56
2018-05-14T07:04:31.381Z,49.75
2018-05-14T07:06:58.938Z,51.76
2018-05-14T07:09:26.523Z,54.04
2018-05-14T07:11:54.004Z,54.65
2018-05-14T07:14:21.514Z,52.11
2018-05-14T07:16:49.018Z,50.19
2018-05-14T07:19:16.630Z,47.89
2018-05-14T07:21:44.096Z,42.25
2018-05-14T07:24:11.639Z,44.34
2018-05-14T07:26:39.167Z,43.05
2018-05-14T07:29:06.722Z,42.19
2018-05-14T07:31:34.233Z,41.58
2018-05-14T07:34:01.796Z,39.91
2018-05-14T07:36:29.312Z,44.05
2018-05-14T07:38:56.941Z,40.59
2018-05-14T07:41:24.452Z,43.86
2018-05-14T07:43:52.004Z,43.04
2018-05-14T07:46:19.536Z,42.50
2018-05-14T07:48:47.064Z,42.20
2018-05-14T07:51:14.637Z,42.80
2018-05-14T07:53:42.167Z,40.27
2018-05-14T07:56:09.942Z,39.54
2018-05-14T07:58:37.272Z,38.95
2018-05-14T08:01:04.786Z,37.17
2018-05-14T08:03:32.334Z,38.80
2018-05-14T08:05:59.868Z,39.36
2018-05-14T08:08:27.399Z,41.53
2018-05-14T08:10:54.910Z,40.85
2018-05-14T08:13:22.420Z,40.57
2018-05-14T08:15:49.962Z,42.25
2018-05-14T08:18:17.490Z,41.63
2018-05-14T08:20:44.995Z,41.55
2018-05-14T08:23:12.494Z,39.22
2018-05-14T08:25:40.006Z,37.23
2018-05-14T08:28:07.520Z,36.46
2018-05-14T08:30:35.074Z,38.55
2018-05-14T08:33:02.590Z,38.44
2018-05-14T08:35:30.107Z,41.33
2018-05-14T08:37:57.624Z,40.80
2018-05-14T08:40:25.131Z,38.77
2018-05-14T08:42:52.677Z,41.57
2018-05-14T08:45:20.187Z,40.22
2018-05-14T08:47:47.696Z,45.63
2018-05-14T08:50:15.219Z,46.65
2018-05-14T08:52:42.864Z,41.67
2018-05-14T08:55:10.371Z,39.76
2018-05-14T08:57:37.982Z,40.48
2018-05-14T09:00:05.653Z,38.49
2018-05-14T09:02:33.170Z,36.01
2018-05-14T09:05:00.692Z,40.67
2018-05-14T09:07:28.206Z,42.59
2018-05-14T09:09:55.729Z,44.39
2018-05-14T09:12:23.237Z,42.10
2018-05-14T09:14:50.751Z,44.15
2018-05-14T09:17:18.329Z,43.62
2018-05-14T09:19:45.824Z,45.54
2018-05-14T09:22:13.330Z,44.64
2018-05-14T09:24:40.847Z,44.04
2018-05-14T09:27:08.350Z,42.72
2018-05-14T09:29:35.884Z,42.46
2018-05-14T09:32:03.461Z,39.75
2018-05-14T09:34:30.984Z,38.17
2018-05-14T09:36:58.513Z,38.27
2018-05-14T09:39:26.029Z,40.72
2018-05-14T09:41:53.556Z,42.29
2018-05-14T09:44:21.084Z,43.06
2018-05-14T09:46:48.593Z,43.89
2018-05-14T09:49:16.099Z,44.85
2018-05-14T09:51:44.236Z,45.13
2018-05-14T09:54:11.745Z,44.74
2018-05-14T09:56:39.263Z,44.46
2018-05-14T09:59:06.768Z,44.90
2018-05-14T10:01:34.296Z,45.67
2018-05-14T10:04:01.858Z,46.89
2018-05-14T10:06:29.379Z,48.51
2018-05-14T10:08:56.896Z,48.45
2018-05-14T10:11:24.416Z,48.56
2018-05-14T10:13:51.922Z,48.84
2018-05-14T10:16:19.443Z,49.67
2018-05-14T10:18:47.019Z,51.64
2018-05-14T10:21:14.494Z,55.04
2018-05-14T10:23:41.999Z,60.00
2018-05-14T10:26:09.536Z,60.40
2018-05-14T10:28:37.063Z,56.99
2018-05-14T10:31:04.597Z,54.66
2018-05-14T10:33:32.103Z,54.14
2018-05-14T10:35:59.624Z,55.45
2018-05-14T10:38:27.122Z,52.76
2018-05-14T10:40:54.637Z,53.02
2018-05-14T10:43:22.147Z,52.36
2018-05-14T10:45:49.658Z,52.26
2018-05-14T10:48:17.178Z,52.92
2018-05-14T10:50:44.709Z,53.57
2018-05-14T10:53:12.219Z,54.48
2018-05-14T10:55:39.802Z,54.23
2018-05-14T10:58:07.309Z,54.86
2018-05-14T11:00:34.882Z,56.18
2018-05-14T11:03:02.383Z,58.79
2018-05-14T11:05:29.916Z,61.54
2018-05-14T11:07:57.473Z,64.79
2018-05-14T11:10:24.986Z,63.61
2018-05-14T11:12:52.499Z,63.60
2018-05-14T11:15:20.034Z,64.53
2018-05-14T11:17:47.571Z,64.90
2018-05-14T11:20:15.074Z,65.81
2018-05-14T11:22:42.596Z,66.11
2018-05-14T11:25:10.105Z,65.29
2018-05-14T11:27:37.703Z,64.80
2018-05-14T11:30:05.444Z,65.50
2018-05-14T11:32:33.068Z,66.82
2018-05-14T11:35:00.622Z,67.13
2018-05-14T11:37:28.194Z,69.75
2018-05-14T11:39:55.747Z,69.81
2018-05-14T11:42:23.260Z,69.85
2018-05-14T11:44:50.808Z,70.11
2018-05-14T11:47:18.843Z,70.57
2018-05-14T11:49:46.349Z,69.73
2018-05-14T11:52:13.852Z,66.47
2018-05-14T11:54:41.355Z,68.55
2018-05-14T11:57:08.911Z,66.89
2018-05-14T11:59:36.427Z,68.50
2018-05-14T12:02:03.945Z,67.91
2018-05-14T12:04:31.468Z,65.89
2018-05-14T12:06:59.045Z,63.69
2018-05-14T12:09:26.560Z,61.53
2018-05-14T12:11:55.918Z,57.01
2018-05-14T12:14:23.437Z,60.39
2018-05-14T12:16:50.976Z,61.90
2018-05-14T12:19:18.477Z,59.41
2018-05-14T12:21:45.981Z,59.22
2018-05-14T12:24:13.520Z,56.52
2018-05-14T12:26:41.034Z,54.99
2018-05-14T12:29:08.545Z,54.13
2018-05-14T12:31:36.141Z,52.88
2018-05-14T12:34:03.651Z,51.56
2018-05-14T12:36:31.164Z,54.12
2018-05-14T12:38:58.690Z,53.71
2018-05-14T12:41:26.191Z,54.35
2018-05-14T12:43:53.687Z,52.34
2018-05-14T12:46:21.203Z,49.10
2018-05-14T12:48:48.750Z,50.60
2018-05-14T12:51:16.310Z,52.23
2018-05-14T12:53:44.776Z,50.80
2018-05-14T12:56:12.309Z,50.04
2018-05-14T12:58:39.824Z,50.86
2018-05-14T13:01:07.343Z,52.05
2018-05-14T13:03:34.849Z,53.59
2018-05-14T13:06:02.519Z,56.08
2018-05-14T13:08:30.032Z,54.87
2018-05-14T13:10:57.596Z,55.25
2018-05-14T13:13:25.107Z,56.19
2018-05-14T13:15:52.635Z,58.47
2018-05-14T13:18:20.159Z,57.86
2018-05-14T13:20:47.696Z,57.92
2018-05-14T13:23:15.220Z,56.80
2018-05-14T13:25:42.762Z,56.94
2018-05-14T13:28:10.307Z,56.73
2018-05-14T13:30:37.864Z,56.41
2018-05-14T13:33:05.384Z,55.67
2018-05-14T13:35:32.887Z,46.34
2018-05-14T13:38:00.471Z,43.88
2018-05-14T13:40:27.990Z,51.11
2018-05-14T13:42:55.607Z,50.59
2018-05-14T13:45:23.101Z,52.62
2018-05-14T13:47:50.614Z,52.80
2018-05-14T13:50:18.121Z,52.28
2018-05-14T13:52:46.415Z,52.32
2018-05-14T13:55:13.915Z,51.88
2018-05-14T13:57:41.419Z,54.53
2018-05-14T14:00:08.964Z,53.61
2018-05-14T14:02:36.480Z,54.50
2018-05-14T14:05:04.074Z,55.44
2018-05-14T14:07:31.545Z,54.63
2018-05-14T14:09:59.046Z,54.60
2018-05-14T14:12:26.548Z,54.91
2018-05-14T14:14:54.093Z,55.33
2018-05-14T14:17:21.598Z,54.74
2018-05-14T14:19:49.095Z,55.25
2018-05-14T14:22:16.587Z,54.13
2018-05-14T14:24:44.106Z,55.38
2018-05-14T14:27:11.614Z,55.58
2018-05-14T14:29:40.008Z,54.76
2018-05-14T14:32:08.361Z,55.78
2018-05-14T14:34:35.887Z,56.20
2018-05-14T14:37:03.451Z,56.77
2018-05-14T14:39:30.919Z,56.80
2018-05-14T14:41:58.417Z,58.88
2018-05-14T14:44:26.008Z,56.53
2018-05-14T14:46:53.523Z,56.53
2018-05-14T14:49:21.066Z,56.85
2018-05-14T14:51:48.559Z,56.56
2018-05-14T14:54:16.313Z,56.55
2018-05-14T14:56:43.819Z,56.55
2018-05-14T14:59:11.400Z,57.08
2018-05-14T15:01:38.938Z,57.27
2018-05-14T15:04:06.447Z,56.80
2018-05-14T15:06:33.950Z,56.93
2018-05-14T15:09:01.555Z,57.29
2018-05-14T15:11:29.069Z,58.65
2018-05-14T15:13:56.654Z,58.31
2018-05-14T15:16:24.439Z,58.28
2018-05-14T15:18:51.942Z,57.49
2018-05-14T15:21:19.495Z,57.13
2018-05-14T15:23:47.006Z,57.25
2018-05-14T15:26:14.558Z,56.96
2018-05-14T15:28:42.074Z,57.64
2018-05-14T15:31:10.043Z,57.05
2018-05-14T15:33:37.917Z,57.45
2018-05-14T15:36:05.475Z,57.65
2018-05-14T15:38:32.997Z,58.53
2018-05-14T15:41:00.514Z,58.96
2018-05-14T15:43:28.064Z,59.48
2018-05-14T15:45:55.577Z,60.05
2018-05-14T15:48:23.120Z,60.05
2018-05-14T15:50:50.640Z,60.09
2018-05-14T15:53:18.156Z,60.03
2018-05-14T15:55:45.747Z,59.90
2018-05-14T15:58:13.312Z,59.54
2018-05-14T16:00:40.839Z,60.10
2018-05-14T16:03:08.351Z,60.19
2018-05-14T16:05:36.134Z,60.59
2018-05-14T16:08:03.702Z,61.05
2018-05-14T16:10:31.203Z,60.79
2018-05-14T16:12:58.722Z,61.13
2018-05-14T16:15:26.228Z,61.73
2018-05-14T16:17:53.946Z,61.73
2018-05-14T16:20:21.551Z,62.01
2018-05-14T16:22:49.065Z,62.42
2018-05-14T16:25:16.575Z,63.12
2018-05-14T16:27:44.076Z,64.00
2018-05-14T16:30:11.590Z,64.53
2018-05-14T16:32:39.125Z,65.12
2018-05-14T16:35:07.377Z,65.79
2018-05-14T16:37:34.890Z,65.63
2018-05-14T16:40:02.451Z,65.76
2018-05-14T16:42:29.947Z,65.65
2018-05-14T16:44:57.453Z,66.63
2018-05-14T16:47:25.002Z,66.53
2018-05-14T16:49:53.269Z,66.24
2018-05-14T16:52:20.779Z,65.99
2018-05-14T16:54:48.330Z,66.31
2018-05-14T16:57:15.839Z,66.59
2018-05-14T16:59:43.396Z,66.36
2018-05-14T17:02:10.951Z,66.43
2018-05-14T17:04:38.467Z,66.47
2018-05-14T17:07:05.971Z,66.98
2018-05-14T17:09:33.507Z,67.49
2018-05-14T17:12:01.023Z,67.88
2018-05-14T17:14:28.530Z,67.98
2018-05-14T17:16:56.100Z,68.39
2018-05-14T17:19:23.613Z,68.67
2018-05-14T17:21:51.182Z,68.98
2018-05-14T17:24:18.686Z,68.76
2018-05-14T17:26:46.227Z,69.10
2018-05-14T17:29:13.780Z,69.36
2018-05-14T17:31:41.317Z,68.92
2018-05-14T17:34:08.871Z,69.62
2018-05-14T17:36:36.419Z,68.65
2018-05-14T17:39:03.999Z,69.23
2018-05-14T17:41:31.516Z,69.17
2018-05-14T17:43:59.048Z,69.83
2018-05-14T17:46:26.569Z,70.23
2018-05-14T17:48:54.071Z,70.89
2018-05-14T17:51:21.603Z,70.30
2018-05-14T17:53:49.176Z,71.00
2018-05-14T17:56:16.737Z,71.05
2018-05-14T17:58:44.254Z,71.56
2018-05-14T18:01:11.755Z,72.22
2018-05-14T18:03:39.270Z,72.35
2018-05-14T18:06:06.828Z,72.46
2018-05-14T18:08:34.442Z,72.73
2018-05-14T18:11:02.041Z,74.50
2018-05-14T18:13:29.492Z,74.74
2018-05-14T18:15:57.008Z,73.28
2018-05-14T18:18:24.537Z,73.04
2018-05-14T18:20:52.128Z,73.32
2018-05-14T18:23:23.524Z,74.34
2018-05-14T18:29:05.880Z,73.23
2018-05-14T18:31:33.422Z,73.02
2018-05-14T18:34:06.565Z,73.37
2018-05-14T18:36:34.100Z,73.74
2018-05-14T18:39:01.629Z,74.00
2018-05-14T18:41:29.208Z,73.21
2018-05-14T18:43:56.740Z,72.17
2018-05-14T18:46:24.358Z,72.70
2018-05-14T18:48:51.803Z,73.62
2018-05-14T18:51:19.404Z,74.37
2018-05-14T18:53:46.917Z,73.78
2018-05-14T18:56:14.450Z,73.53
2018-05-14T18:58:42.197Z,74.42
2018-05-14T19:01:09.722Z,75.05
2018-05-14T19:03:37.247Z,74.08
2018-05-14T19:06:04.783Z,73.81
2018-05-14T19:08:32.571Z,73.14
2018-05-14T19:11:05.718Z,74.72
2018-05-14T19:13:33.241Z,74.95
2018-05-14T19:16:06.331Z,75.71
2018-05-14T19:18:33.884Z,74.48
2018-05-14T19:21:01.402Z,74.44
2018-05-14T19:23:34.575Z,74.95
2018-05-14T19:26:02.095Z,75.03
2018-05-14T19:28:35.144Z,75.19
2018-05-14T19:31:02.663Z,75.63
2018-05-14T19:33:35.715Z,75.14
2018-05-14T19:36:03.285Z,74.86
2018-05-14T19:38:30.773Z,75.05
2018-05-14T19:40:58.282Z,75.59
2018-05-14T19:43:25.804Z,76.12
2018-05-14T19:45:53.322Z,76.37
2018-05-14T19:48:20.863Z,76.43
2018-05-14T19:50:48.372Z,75.87
2018-05-14T19:53:15.907Z,75.89
2018-05-14T19:55:43.423Z,76.22
2018-05-14T19:58:10.939Z,76.36
2018-05-14T20:00:38.472Z,76.84
2018-05-14T20:03:05.995Z,76.59
2018-05-14T20:05:33.602Z,76.84
2018-05-14T20:08:01.117Z,77.05
2018-05-14T20:10:30.750Z,77.93
2018-05-14T20:12:58.301Z,78.13
2018-05-14T20:15:25.919Z,78.08
2018-05-14T20:17:53.459Z,77.49
2018-05-14T20:20:21.289Z,77.23
2018-05-14T20:22:48.854Z,77.14
2018-05-14T20:25:16.419Z,77.57
2018-05-14T20:27:43.996Z,77.12
2018-05-14T20:30:11.560Z,77.35
2018-05-14T20:32:39.071Z,76.99
2018-05-14T20:35:06.579Z,76.59
2018-05-14T20:37:34.119Z,77.26
2018-05-14T20:40:01.632Z,76.95
2018-05-14T20:42:29.208Z,76.38
2018-05-14T20:44:56.740Z,75.80
2018-05-14T20:47:24.346Z,76.17
2018-05-14T20:49:51.851Z,76.31
2018-05-14T20:52:19.363Z,76.13
2018-05-14T20:54:46.887Z,75.89
2018-05-14T20:57:14.440Z,76.17
2018-05-14T20:59:41.963Z,75.93
2018-05-14T21:02:09.486Z,76.79
2018-05-14T21:04:37.037Z,77.14
2018-05-14T21:07:04.592Z,77.23
2018-05-14T21:09:32.103Z,77.77
2018-05-14T21:11:59.635Z,78.29
2018-05-14T21:14:27.205Z,77.40
2018-05-14T21:16:54.711Z,77.09
2018-05-14T21:19:22.236Z,77.30
2018-05-14T21:21:49.743Z,77.17
2018-05-14T21:24:17.261Z,76.71
2018-05-14T21:26:44.882Z,76.21
2018-05-14T21:29:12.398Z,75.91
2018-05-14T21:31:39.951Z,76.10
2018-05-14T21:34:07.780Z,76.55
2018-05-14T21:36:35.296Z,76.95
2018-05-14T21:39:02.879Z,76.71
2018-05-14T21:41:30.365Z,76.99
2018-05-14T21:43:57.879Z,78.10
2018-05-14T21:46:25.442Z,77.79
2018-05-14T21:48:52.989Z,77.15
2018-05-14T21:51:20.575Z,77.28
2018-05-14T21:53:48.104Z,77.54
2018-05-14T21:56:15.623Z,77.03
2018-05-14T21:58:43.137Z,77.10
2018-05-14T22:01:10.686Z,77.30
2018-05-14T22:03:38.200Z,77.79
2018-05-14T22:06:05.745Z,77.89
2018-05-14T22:08:33.304Z,78.32
2018-05-14T22:11:00.851Z,78.59
2018-05-14T22:13:28.363Z,78.62
2018-05-14T22:15:55.943Z,79.20
2018-05-14T22:18:23.575Z,78.86
2018-05-14T22:20:51.031Z,78.45
2018-05-14T22:23:18.602Z,77.90
2018-05-14T22:25:46.151Z,78.41
2018-05-14T22:28:13.708Z,79.88
2018-05-14T22:30:41.269Z,79.50
2018-05-14T22:33:08.777Z,79.82
2018-05-14T22:35:36.288Z,79.77
2018-05-14T22:38:03.830Z,79.93
2018-05-14T22:40:31.373Z,79.54
2018-05-14T22:42:58.932Z,80.69
2018-05-14T22:45:26.531Z,79.93
2018-05-14T22:47:54.055Z,80.61
2018-05-14T22:50:21.575Z,80.65
2018-05-14T22:52:49.090Z,80.80
2018-05-14T22:55:16.615Z,80.30
2018-05-14T22:57:44.172Z,79.40
2018-05-14T23:00:11.739Z,79.54
2018-05-14T23:02:39.289Z,80.11
2018-05-14T23:05:06.793Z,80.04
2018-05-14T23:07:34.319Z,79.84
2018-05-14T23:10:01.847Z,79.37
2018-05-14T23:12:29.393Z,79.52
2018-05-14T23:14:56.916Z,79.42
2018-05-14T23:17:24.437Z,80.40
2018-05-14T23:19:51.986Z,80.64
2018-05-14T23:22:19.564Z,79.90
2018-05-14T23:24:47.096Z,79.81
2018-05-14T23:27:14.609Z,80.64
2018-05-14T23:29:42.133Z,80.22
2018-05-14T23:32:09.677Z,80.19
2018-05-14T23:34:37.244Z,80.15
2018-05-14T23:37:04.761Z,79.76
2018-05-14T23:39:32.317Z,79.78
2018-05-14T23:41:59.840Z,79.67
2018-05-14T23:44:27.400Z,79.78
2018-05-14T23:46:54.916Z,80.49
2018-05-14T23:49:22.512Z,79.88
2018-05-14T23:51:50.049Z,79.73
2018-05-14T23:54:17.577Z,79.38
2018-05-14T23:56:45.136Z,79.31
2018-05-14T23:59:12.697Z,78.89
